Time,TemperatureF,DewpointF,PressureIn,WindDirection,WindDirectionDegrees,WindSpeedMPH,WindSpeedGustMPH,Humidity,HourlyPrecipIn,Conditions,Clouds,dailyrainin,SoftwareType,DateUTC
2013-02-13 01:37:00,18.7,18.5,29.68,North,0,0.0,-999.0,99,-99.99,,,0.00,Acu-Link.com,2013-02-13 07:37:00,
2013-02-13 01:52:00,17.8,17.6,29.68,NE,45,0.0,-999.0,99,-99.99,,,0.00,Acu-Link.com,2013-02-13 07:52:00,
2013-02-13 02:07:00,17.4,17.2,29.68,East,90,0.0,-999.0,99,-99.99,,,0.00,Acu-Link.com,2013-02-13 08:07:00,
2013-02-13 02:22:00,16.5,16.3,29.67,East,90,0.0,-999.0,99,-99.99,,,0.00,Acu-Link.com,2013-02-13 08:22:00,
2013-02-13 02:37:00,15.6,15.4,29.67,West,270,0.0,-999.0,99,-99.99,,,0.00,Acu-Link.com,2013-02-13 08:37:00,
2013-02-13 02:53:00,15.3,15.1,29.66,SSE,157,0.0,-999.0,99,-99.99,,,0.00,Acu-Link.com,2013-02-13 08:53:00,
2013-02-13 03:16:00,14.7,14.5,29.66,West,270,0.0,-999.0,99,-99.99,,,0.00,Acu-Link.com,2013-02-13 09:16:00,
2013-02-13 03:31:00,15.4,15.2,29.65,WSW,247,0.0,-999.0,99,-99.99,,,0.00,Acu-Link.com,2013-02-13 09:31:00,
2013-02-13 03:46:00,14.9,14.7,29.64,SSW,202,0.0,-999.0,99,-99.99,,,0.00,Acu-Link.com,2013-02-13 09:46:00,
2013-02-13 04:02:00,14.9,14.7,29.63,West,270,0.0,-999.0,99,-99.99,,,0.00,Acu-Link.com,2013-02-13 10:02:00,
2013-02-13 04:17:00,14.5,14.3,29.62,SW,225,0.0,-999.0,99,-99.99,,,0.00,Acu-Link.com,2013-02-13 10:17:00,
2013-02-13 04:32:00,14.7,14.5,29.62,SW,225,0.0,-999.0,99,-99.99,,,0.00,Acu-Link.com,2013-02-13 10:32:00,
2013-02-13 04:47:00,14.5,14.3,29.62,SW,225,0.0,-999.0,99,-99.99,,,0.00,Acu-Link.com,2013-02-13 10:47:00,
2013-02-13 05:02:00,14.4,14.2,29.62,WSW,247,0.0,-999.0,99,-99.99,,,0.00,Acu-Link.com,2013-02-13 11:02:00,
2013-02-13 05:18:00,14.0,13.8,29.61,ESE,112,0.0,-999.0,99,-99.99,,,0.00,Acu-Link.com,2013-02-13 11:18:00,
2013-02-13 05:33:00,13.3,13.1,29.60,SSW,202,0.0,-999.0,99,-99.99,,,0.00,Acu-Link.com,2013-02-13 11:33:00,
2013-02-13 05:48:00,12.6,12.4,29.60,ESE,112,0.0,-999.0,99,-99.99,,,0.00,Acu-Link.com,2013-02-13 11:48:00,
2013-02-13 06:03:00,12.2,12.0,29.60,SSE,157,0.0,-999.0,99,-99.99,,,0.00,Acu-Link.com,2013-02-13 12:03:00,
2013-02-13 06:18:00,12.0,11.8,29.59,SE,135,0.0,-999.0,99,-99.99,,,0.00,Acu-Link.com,2013-02-13 12:18:00,
2013-02-13 06:34:00,11.8,11.6,29.58,WSW,247,0.0,-999.0,99,-99.99,,,0.00,Acu-Link.com,2013-02-13 12:34:00,
2013-02-13 06:49:00,12.0,11.8,29.58,WSW,247,0.0,-999.0,99,-99.99,,,0.00,Acu-Link.com,2013-02-13 12:49:00,
2013-02-13 07:04:00,12.9,12.7,29.58,WSW,247,0.0,-999.0,99,-99.99,,,0.00,Acu-Link.com,2013-02-13 13:04:00,
2013-02-13 07:19:00,12.9,12.7,29.59,ESE,112,0.0,-999.0,99,-99.99,,,0.00,Acu-Link.com,2013-02-13 13:19:00,
2013-02-13 07:35:00,17.2,17.0,29.58,ENE,67,0.0,-999.0,99,-99.99,,,0.00,Acu-Link.com,2013-02-13 13:35:00,
2013-02-13 07:50:00,21.9,21.7,29.59,ESE,112,0.0,-999.0,99,-99.99,,,0.00,Acu-Link.com,2013-02-13 13:50:00,
2013-02-13 08:05:00,26.8,26.6,29.59,South,180,0.0,-999.0,99,-99.99,,,0.00,Acu-Link.com,2013-02-13 14:05:00,
2013-02-13 08:21:00,21.9,21.7,29.59,ESE,112,0.0,-999.0,99,-99.99,,,0.00,Acu-Link.com,2013-02-13 14:21:00,
2013-02-13 08:36:00,27.1,26.9,29.60,SSW,202,0.0,-999.0,99,-99.99,,,0.00,Acu-Link.com,2013-02-13 14:36:00,
2013-02-13 08:51:00,27.3,27.1,29.59,SSE,157,0.0,-999.0,99,-99.99,,,0.00,Acu-Link.com,2013-02-13 14:51:00,
2013-02-13 09:06:00,29.3,29.1,29.59,South,180,1.7,-999.0,99,-99.99,,,0.00,Acu-Link.com,2013-02-13 15:06:00,
2013-02-13 09:21:00,30.9,30.7,29.59,SSW,202,2.2,-999.0,99,-99.99,,,0.00,Acu-Link.com,2013-02-13 15:21:00,
2013-02-13 09:36:00,31.5,31.3,29.58,SSW,202,2.2,-999.0,99,-99.99,,,0.00,Acu-Link.com,2013-02-13 15:36:00,
2013-02-13 09:52:00,32.5,31.5,29.59,SSW,202,4.2,-999.0,96,-99.99,,,0.00,Acu-Link.com,2013-02-13 15:52:00,
2013-02-13 10:07:00,33.8,32.0,29.58,SE,135,3.7,-999.0,93,-99.99,,,0.00,Acu-Link.com,2013-02-13 16:07:00,
2013-02-13 10:22:00,34.3,32.0,29.58,SSW,202,4.7,-999.0,91,-99.99,,,0.00,Acu-Link.com,2013-02-13 16:22:00,
2013-02-13 10:37:00,35.8,32.9,29.58,SSE,157,4.2,-999.0,89,-99.99,,,0.00,Acu-Link.com,2013-02-13 16:37:00,
2013-02-13 10:53:00,37.2,33.1,29.58,SSW,202,4.2,-999.0,85,-99.99,,,0.00,Acu-Link.com,2013-02-13 16:53:00,
2013-02-13 11:08:00,36.9,33.1,29.58,SW,225,2.7,-999.0,86,-99.99,,,0.00,Acu-Link.com,2013-02-13 17:08:00,
2013-02-13 11:23:00,37.4,32.7,29.58,South,180,2.7,-999.0,83,-99.99,,,0.00,Acu-Link.com,2013-02-13 17:23:00,
2013-02-13 11:38:00,38.5,33.5,29.58,SSW,202,3.7,-999.0,82,-99.99,,,0.00,Acu-Link.com,2013-02-13 17:38:00,
2013-02-13 11:53:00,39.2,33.2,29.57,WSW,247,2.7,-999.0,79,-99.99,,,0.00,Acu-Link.com,2013-02-13 17:53:00,
2013-02-13 12:09:00,39.4,33.8,29.56,SSW,202,4.2,-999.0,80,-99.99,,,0.00,Acu-Link.com,2013-02-13 18:09:00,
2013-02-13 12:24:00,40.1,33.5,29.55,WSW,247,4.2,-999.0,77,-99.99,,,0.00,Acu-Link.com,2013-02-13 18:24:00,
2013-02-13 12:39:00,40.1,33.2,29.55,WSW,247,8.3,-999.0,76,-99.99,,,0.00,Acu-Link.com,2013-02-13 18:39:00,
2013-02-13 12:54:00,39.7,32.8,29.54,SSW,202,6.8,-999.0,76,-99.99,,,0.00,Acu-Link.com,2013-02-13 18:54:00,
2013-02-13 13:09:00,40.1,33.2,29.54,SW,225,6.8,-999.0,76,-99.99,,,0.00,Acu-Link.com,2013-02-13 19:09:00,
2013-02-13 13:25:00,39.9,32.6,29.54,SW,225,6.3,-999.0,75,-99.99,,,0.00,Acu-Link.com,2013-02-13 19:25:00,
2013-02-13 13:40:00,38.7,33.4,29.53,SSW,202,6.3,-999.0,81,-99.99,,,0.00,Acu-Link.com,2013-02-13 19:40:00,
2013-02-13 13:55:00,38.8,33.2,29.53,SSW,202,9.9,-999.0,80,-99.99,,,0.00,Acu-Link.com,2013-02-13 19:55:00,
2013-02-13 14:10:00,38.5,33.2,29.53,SW,225,6.3,-999.0,81,-99.99,,,0.00,Acu-Link.com,2013-02-13 20:10:00,
2013-02-13 14:26:00,37.8,33.7,29.53,SW,225,7.3,-999.0,85,-99.99,,,0.00,Acu-Link.com,2013-02-13 20:26:00,
2013-02-13 14:41:00,38.5,33.8,29.53,WSW,247,8.3,-999.0,83,-99.99,,,0.00,Acu-Link.com,2013-02-13 20:41:00,
2013-02-13 14:56:00,37.9,33.5,29.53,SW,225,4.7,-999.0,84,-99.99,,,0.00,Acu-Link.com,2013-02-13 20:56:00,
2013-02-13 15:11:00,38.8,33.8,29.54,SW,225,7.8,-999.0,82,-99.99,,,0.00,Acu-Link.com,2013-02-13 21:11:00,
2013-02-13 15:26:00,39.0,33.7,29.53,SW,225,8.9,-999.0,81,-99.99,,,0.00,Acu-Link.com,2013-02-13 21:26:00,
2013-02-13 15:42:00,38.8,33.8,29.53,SSW,202,4.7,-999.0,82,-99.99,,,0.00,Acu-Link.com,2013-02-13 21:42:00,
2013-02-13 15:57:00,38.5,33.8,29.53,SW,225,6.3,-999.0,83,-99.99,,,0.00,Acu-Link.com,2013-02-13 21:57:00,
2013-02-13 16:12:00,38.3,33.6,29.54,WSW,247,6.3,-999.0,83,-99.99,,,0.00,Acu-Link.com,2013-02-13 22:12:00,
2013-02-13 16:27:00,37.8,32.5,29.54,West,270,4.7,-999.0,81,-99.99,,,0.00,Acu-Link.com,2013-02-13 22:27:00,
2013-02-13 16:42:00,37.2,32.2,29.54,West,270,3.7,-999.0,82,-99.99,,,0.00,Acu-Link.com,2013-02-13 22:42:00,
2013-02-13 16:58:00,37.0,32.3,29.54,WSW,247,5.3,-999.0,83,-99.99,,,0.00,Acu-Link.com,2013-02-13 22:58:00,
2013-02-13 17:13:00,35.2,32.6,29.54,WSW,247,3.2,-999.0,90,-99.99,,,0.00,Acu-Link.com,2013-02-13 23:13:00,
2013-02-13 17:28:00,34.2,32.9,29.54,West,270,4.2,-999.0,95,-99.99,,,0.00,Acu-Link.com,2013-02-13 23:28:00,
2013-02-13 17:43:00,32.9,32.7,29.54,West,270,1.7,-999.0,99,-99.99,,,0.00,Acu-Link.com,2013-02-13 23:43:00,
2013-02-13 17:59:00,31.8,31.6,29.54,SW,225,1.7,-999.0,99,-99.99,,,0.00,Acu-Link.com,2013-02-13 23:59:00,
2013-02-13 18:14:00,31.3,31.1,29.55,WSW,247,1.7,-999.0,99,-99.99,,,0.00,Acu-Link.com,2013-02-14 00:14:00,
2013-02-13 18:29:00,30.7,30.5,29.55,WSW,247,1.7,-999.0,99,-99.99,,,0.00,Acu-Link.com,2013-02-14 00:29:00,
2013-02-13 18:44:00,30.6,30.4,29.55,WSW,247,3.7,-999.0,99,-99.99,,,0.00,Acu-Link.com,2013-02-14 00:44:00,
2013-02-13 18:59:00,30.0,29.8,29.56,WSW,247,0.0,-999.0,99,-99.99,,,0.00,Acu-Link.com,2013-02-14 00:59:00,
2013-02-13 19:15:00,29.7,29.5,29.56,WSW,247,1.1,-999.0,99,-99.99,,,0.00,Acu-Link.com,2013-02-14 01:15:00,
2013-02-13 19:30:00,30.0,29.8,29.55,SW,225,1.7,-999.0,99,-99.99,,,0.00,Acu-Link.com,2013-02-14 01:30:00,
2013-02-13 19:45:00,30.2,30.0,29.56,WSW,247,0.0,-999.0,99,-99.99,,,0.00,Acu-Link.com,2013-02-14 01:45:00,
2013-02-13 20:00:00,30.2,30.0,29.56,SW,225,0.0,-999.0,99,-99.99,,,0.00,Acu-Link.com,2013-02-14 02:00:00,
2013-02-13 20:16:00,31.1,30.9,29.55,SW,225,1.7,-999.0,99,-99.99,,,0.00,Acu-Link.com,2013-02-14 02:16:00,
2013-02-13 20:31:00,31.8,31.6,29.54,SW,225,3.2,-999.0,99,-99.99,,,0.00,Acu-Link.com,2013-02-14 02:31:00,
2013-02-13 20:46:00,32.2,32.0,29.54,SW,225,1.7,-999.0,99,-99.99,,,0.00,Acu-Link.com,2013-02-14 02:46:00,
2013-02-13 21:01:00,31.8,31.6,29.54,SW,225,0.0,-999.0,99,-99.99,,,0.00,Acu-Link.com,2013-02-14 03:01:00,
2013-02-13 21:17:00,31.6,31.4,29.54,WSW,247,1.1,-999.0,99,-99.99,,,0.00,Acu-Link.com,2013-02-14 03:17:00,
2013-02-13 21:32:00,31.8,31.6,29.54,SW,225,3.2,-999.0,99,-99.99,,,0.00,Acu-Link.com,2013-02-14 03:32:00,
2013-02-13 21:47:00,32.2,32.0,29.55,SW,225,1.7,-999.0,99,-99.99,,,0.00,Acu-Link.com,2013-02-14 03:47:00,
2013-02-13 22:02:00,32.4,32.2,29.54,West,270,1.1,-999.0,99,-99.99,,,0.00,Acu-Link.com,2013-02-14 04:02:00,
2013-02-13 22:17:00,32.2,32.0,29.54,SW,225,1.1,-999.0,99,-99.99,,,0.00,Acu-Link.com,2013-02-14 04:17:00,
2013-02-13 22:33:00,32.0,31.8,29.53,SSW,202,1.1,-999.0,99,-99.99,,,0.00,Acu-Link.com,2013-02-14 04:33:00,
2013-02-13 22:48:00,31.5,31.3,29.53,SE,135,0.0,-999.0,99,-99.99,,,0.00,Acu-Link.com,2013-02-14 04:48:00,
2013-02-13 23:03:00,30.9,30.7,29.53,SE,135,0.0,-999.0,99,-99.99,,,0.00,Acu-Link.com,2013-02-14 05:03:00,
2013-02-13 23:18:00,31.3,31.1,29.53,South,180,0.0,-999.0,99,-99.99,,,0.00,Acu-Link.com,2013-02-14 05:18:00,
2013-02-13 23:33:00,31.6,31.4,29.52,SSW,202,1.1,-999.0,99,-99.99,,,0.00,Acu-Link.com,2013-02-14 05:33:00,
2013-02-13 23:49:00,31.8,31.6,29.52,SSW,202,1.1,-999.0,99,-99.99,,,0.00,Acu-Link.com,2013-02-14 05:49:00,